sensor_id;sensor_type;location;lat;lon;timestamp;pressure;altitude;pressure_sealevel;temperature;humidity
47330;BME280;33060;50.178;7.570;2024-01-25T00:00:20;98118.25;;;8.35;100.00
47330;BME280;33060;50.178;7.570;2024-01-25T00:02:47;98114.22;;;8.26;100.00
47330;BME280;33060;50.178;7.570;2024-01-25T00:05:14;98112.84;;;8.17;100.00
47330;BME280;33060;50.178;7.570;2024-01-25T00:07:46;98102.03;;;8.23;100.00
47330;BME280;33060;50.178;7.570;2024-01-25T00:10:13;98110.06;;;8.20;100.00
47330;BME280;33060;50.178;7.570;2024-01-25T00:12:41;98095.34;;;8.16;100.00
47330;BME280;33060;50.178;7.570;2024-01-25T00:15:09;98101.19;;;8.23;100.00
47330;BME280;33060;50.178;7.570;2024-01-25T00:17:37;98106.13;;;8.31;100.00
47330;BME280;33060;50.178;7.570;2024-01-25T00:20:04;98106.91;;;8.12;100.00
47330;BME280;33060;50.178;7.570;2024-01-25T00:22:32;98097.19;;;8.14;100.00
47330;BME280;33060;50.178;7.570;2024-01-25T00:24:58;98103.28;;;8.15;100.00
47330;BME280;33060;50.178;7.570;2024-01-25T00:27:26;98095.69;;;7.88;100.00
47330;BME280;33060;50.178;7.570;2024-01-25T00:29:53;98086.09;;;7.87;100.00
47330;BME280;33060;50.178;7.570;2024-01-25T00:32:20;98085.78;;;7.95;100.00
47330;BME280;33060;50.178;7.570;2024-01-25T00:34:47;98075.06;;;7.79;100.00
47330;BME280;33060;50.178;7.570;2024-01-25T00:37:14;98070.66;;;7.80;100.00
47330;BME280;33060;50.178;7.570;2024-01-25T00:39:41;98085.88;;;7.72;100.00
47330;BME280;33060;50.178;7.570;2024-01-25T00:42:12;98081.56;;;7.71;100.00
47330;BME280;33060;50.178;7.570;2024-01-25T00:44:39;98077.50;;;7.84;100.00
47330;BME280;33060;50.178;7.570;2024-01-25T00:47:06;98081.13;;;8.02;100.00
47330;BME280;33060;50.178;7.570;2024-01-25T00:49:33;98081.59;;;7.91;100.00
47330;BME280;33060;50.178;7.570;2024-01-25T00:52:02;98077.41;;;8.06;100.00
47330;BME280;33060;50.178;7.570;2024-01-25T00:54:30;98083.34;;;7.70;100.00
47330;BME280;33060;50.178;7.570;2024-01-25T00:56:57;98083.06;;;7.97;100.00
47330;BME280;33060;50.178;7.570;2024-01-25T00:59:24;98083.66;;;8.03;100.00
47330;BME280;33060;50.178;7.570;2024-01-25T01:01:52;98086.56;;;8.17;100.00
47330;BME280;33060;50.178;7.570;2024-01-25T01:04:20;98099.28;;;8.27;100.00
47330;BME280;33060;50.178;7.570;2024-01-25T01:06:47;98095.22;;;8.40;100.00
47330;BME280;33060;50.178;7.570;2024-01-25T01:09:15;98093.31;;;8.23;100.00
47330;BME280;33060;50.178;7.570;2024-01-25T01:11:41;98099.81;;;8.14;100.00
47330;BME280;33060;50.178;7.570;2024-01-25T01:14:09;98101.13;;;8.04;100.00
47330;BME280;33060;50.178;7.570;2024-01-25T01:16:35;98098.38;;;8.07;100.00
47330;BME280;33060;50.178;7.570;2024-01-25T01:19:02;98088.53;;;8.12;100.00
47330;BME280;33060;50.178;7.570;2024-01-25T01:21:33;98089.19;;;8.38;100.00
47330;BME280;33060;50.178;7.570;2024-01-25T01:24:01;98095.63;;;8.10;100.00
47330;BME280;33060;50.178;7.570;2024-01-25T01:26:28;98108.88;;;8.07;100.00
47330;BME280;33060;50.178;7.570;2024-01-25T01:28:54;98099.84;;;8.33;100.00
47330;BME280;33060;50.178;7.570;2024-01-25T01:31:21;98082.59;;;8.07;100.00
47330;BME280;33060;50.178;7.570;2024-01-25T01:33:48;98091.94;;;8.14;100.00
47330;BME280;33060;50.178;7.570;2024-01-25T01:36:15;98106.25;;;8.48;100.00
47330;BME280;33060;50.178;7.570;2024-01-25T01:38:42;98103.22;;;8.16;100.00
47330;BME280;33060;50.178;7.570;2024-01-25T01:41:10;98088.66;;;8.09;100.00
47330;BME280;33060;50.178;7.570;2024-01-25T01:43:38;98104.25;;;8.33;100.00
47330;BME280;33060;50.178;7.570;2024-01-25T01:46:10;98116.69;;;8.49;100.00
47330;BME280;33060;50.178;7.570;2024-01-25T01:48:38;98109.47;;;8.34;100.00
47330;BME280;33060;50.178;7.570;2024-01-25T01:51:05;98102.06;;;8.44;100.00
47330;BME280;33060;50.178;7.570;2024-01-25T01:53:34;98101.00;;;8.28;100.00
47330;BME280;33060;50.178;7.570;2024-01-25T01:56:01;98105.25;;;8.30;100.00
47330;BME280;33060;50.178;7.570;2024-01-25T01:58:28;98123.72;;;8.49;100.00
47330;BME280;33060;50.178;7.570;2024-01-25T02:00:58;98118.78;;;8.43;100.00
47330;BME280;33060;50.178;7.570;2024-01-25T02:03:26;98114.03;;;8.70;100.00
47330;BME280;33060;50.178;7.570;2024-01-25T02:05:53;98118.22;;;8.55;100.00
47330;BME280;33060;50.178;7.570;2024-01-25T02:08:20;98114.50;;;8.59;100.00
47330;BME280;33060;50.178;7.570;2024-01-25T02:10:46;98114.03;;;8.70;100.00
47330;BME280;33060;50.178;7.570;2024-01-25T02:13:13;98125.38;;;8.31;100.00
47330;BME280;33060;50.178;7.570;2024-01-25T02:15:40;98118.81;;;8.41;100.00
47330;BME280;33060;50.178;7.570;2024-01-25T02:18:07;98121.25;;;8.26;100.00
47330;BME280;33060;50.178;7.570;2024-01-25T02:20:33;98131.47;;;8.32;100.00
47330;BME280;33060;50.178;7.570;2024-01-25T02:23:00;98121.75;;;8.34;100.00
47330;BME280;33060;50.178;7.570;2024-01-25T02:25:27;98124.38;;;8.34;100.00
47330;BME280;33060;50.178;7.570;2024-01-25T02:27:53;98132.03;;;8.40;100.00
47330;BME280;33060;50.178;7.570;2024-01-25T02:30:21;98143.00;;;8.49;100.00
47330;BME280;33060;50.178;7.570;2024-01-25T02:32:48;98123.88;;;8.46;100.00
47330;BME280;33060;50.178;7.570;2024-01-25T02:35:15;98121.41;;;8.62;100.00
47330;BME280;33060;50.178;7.570;2024-01-25T02:37:42;98122.09;;;8.26;100.00
47330;BME280;33060;50.178;7.570;2024-01-25T02:40:09;98113.84;;;8.34;100.00
47330;BME280;33060;50.178;7.570;2024-01-25T02:42:36;98127.41;;;8.25;100.00
47330;BME280;33060;50.178;7.570;2024-01-25T02:45:04;98131.47;;;8.32;100.00
47330;BME280;33060;50.178;7.570;2024-01-25T02:47:30;98124.22;;;8.38;100.00
47330;BME280;33060;50.178;7.570;2024-01-25T02:49:57;98133.84;;;8.58;100.00
47330;BME280;33060;50.178;7.570;2024-01-25T02:52:24;98146.31;;;8.33;100.00
47330;BME280;33060;50.178;7.570;2024-01-25T02:54:51;98137.09;;;8.44;100.00
47330;BME280;33060;50.178;7.570;2024-01-25T02:57:17;98130.47;;;8.36;100.00
47330;BME280;33060;50.178;7.570;2024-01-25T02:59:44;98132.28;;;8.54;100.00
47330;BME280;33060;50.178;7.570;2024-01-25T03:02:11;98125.47;;;8.09;100.00
47330;BME280;33060;50.178;7.570;2024-01-25T03:04:38;98126.50;;;8.46;100.00
47330;BME280;33060;50.178;7.570;2024-01-25T03:07:05;98133.72;;;8.20;100.00
47330;BME280;33060;50.178;7.570;2024-01-25T03:09:31;98120.88;;;8.35;100.00
47330;BME280;33060;50.178;7.570;2024-01-25T03:11:58;98124.69;;;8.67;100.00
47330;BME280;33060;50.178;7.570;2024-01-25T03:14:25;98129.75;;;8.71;100.00
47330;BME280;33060;50.178;7.570;2024-01-25T03:16:52;98123.50;;;8.33;100.00
47330;BME280;33060;50.178;7.570;2024-01-25T03:19:18;98130.31;;;8.39;100.00
47330;BME280;33060;50.178;7.570;2024-01-25T03:21:45;98130.44;;;8.15;100.00
47330;BME280;33060;50.178;7.570;2024-01-25T03:24:12;98109.22;;;8.20;100.00
47330;BME280;33060;50.178;7.570;2024-01-25T03:26:40;98119.66;;;8.21;100.00
47330;BME280;33060;50.178;7.570;2024-01-25T03:29:06;98124.84;;;8.03;100.00
47330;BME280;33060;50.178;7.570;2024-01-25T03:31:33;98125.31;;;7.92;100.00
47330;BME280;33060;50.178;7.570;2024-01-25T03:34:01;98116.97;;;8.23;100.00
47330;BME280;33060;50.178;7.570;2024-01-25T03:36:28;98132.91;;;7.98;100.00
47330;BME280;33060;50.178;7.570;2024-01-25T03:38:55;98118.06;;;7.97;100.00
47330;BME280;33060;50.178;7.570;2024-01-25T03:41:21;98117.94;;;7.80;100.00
47330;BME280;33060;50.178;7.570;2024-01-25T03:43:50;98133.91;;;7.96;100.00
47330;BME280;33060;50.178;7.570;2024-01-25T03:46:17;98138.31;;;7.95;100.00
47330;BME280;33060;50.178;7.570;2024-01-25T03:48:44;98139.03;;;7.78;100.00
47330;BME280;33060;50.178;7.570;2024-01-25T03:51:10;98145.03;;;8.02;100.00
47330;BME280;33060;50.178;7.570;2024-01-25T03:53:37;98150.22;;;7.61;100.00
47330;BME280;33060;50.178;7.570;2024-01-25T03:56:10;98151.97;;;7.83;100.00
47330;BME280;33060;50.178;7.570;2024-01-25T03:58:36;98149.59;;;7.77;100.00
47330;BME280;33060;50.178;7.570;2024-01-25T04:01:03;98144.72;;;7.68;100.00
47330;BME280;33060;50.178;7.570;2024-01-25T04:03:30;98154.97;;;7.52;100.00
47330;BME280;33060;50.178;7.570;2024-01-25T04:05:57;98154.69;;;7.59;100.00
47330;BME280;33060;50.178;7.570;2024-01-25T04:08:24;98160.78;;;7.16;100.00
47330;BME280;33060;50.178;7.570;2024-01-25T04:10:51;98162.38;;;7.42;100.00
47330;BME280;33060;50.178;7.570;2024-01-25T04:13:17;98164.31;;;7.37;100.00
47330;BME280;33060;50.178;7.570;2024-01-25T04:15:44;98163.16;;;7.44;100.00
47330;BME280;33060;50.178;7.570;2024-01-25T04:18:11;98166.56;;;7.46;100.00
47330;BME280;33060;50.178;7.570;2024-01-25T04:20:38;98158.63;;;7.70;100.00
47330;BME280;33060;50.178;7.570;2024-01-25T04:23:04;98169.03;;;7.51;100.00
47330;BME280;33060;50.178;7.570;2024-01-25T04:25:31;98148.38;;;7.63;100.00
47330;BME280;33060;50.178;7.570;2024-01-25T04:28:00;98161.78;;;7.57;100.00
47330;BME280;33060;50.178;7.570;2024-01-25T04:30:27;98160.63;;;7.64;100.00
47330;BME280;33060;50.178;7.570;2024-01-25T04:32:54;98152.50;;;7.91;100.00
47330;BME280;33060;50.178;7.570;2024-01-25T04:35:21;98155.19;;;7.89;100.00
47330;BME280;33060;50.178;7.570;2024-01-25T04:37:48;98165.34;;;7.55;100.00
47330;BME280;33060;50.178;7.570;2024-01-25T04:40:14;98172.56;;;7.50;100.00
47330;BME280;33060;50.178;7.570;2024-01-25T04:42:41;98169.06;;;7.93;100.00
47330;BME280;33060;50.178;7.570;2024-01-25T04:45:08;98171.31;;;8.22;100.00
47330;BME280;33060;50.178;7.570;2024-01-25T04:47:34;98176.56;;;8.02;100.00
47330;BME280;33060;50.178;7.570;2024-01-25T04:50:04;98170.25;;;8.06;100.00
47330;BME280;33060;50.178;7.570;2024-01-25T04:52:30;98184.06;;;8.11;100.00
47330;BME280;33060;50.178;7.570;2024-01-25T04:54:57;98178.28;;;7.81;100.00
47330;BME280;33060;50.178;7.570;2024-01-25T04:57:24;98181.13;;;7.97;100.00
47330;BME280;33060;50.178;7.570;2024-01-25T04:59:51;98189.97;;;7.74;100.00
47330;BME280;33060;50.178;7.570;2024-01-25T05:02:17;98180.41;;;7.93;100.00
47330;BME280;33060;50.178;7.570;2024-01-25T05:04:44;98186.50;;;7.74;100.00
47330;BME280;33060;50.178;7.570;2024-01-25T05:07:12;98185.13;;;7.63;100.00
47330;BME280;33060;50.178;7.570;2024-01-25T05:09:39;98194.78;;;7.63;100.00
47330;BME280;33060;50.178;7.570;2024-01-25T05:12:05;98193.34;;;7.56;100.00
47330;BME280;33060;50.178;7.570;2024-01-25T05:14:32;98199.44;;;7.56;100.00
47330;BME280;33060;50.178;7.570;2024-01-25T05:16:59;98202.25;;;7.52;100.00
47330;BME280;33060;50.178;7.570;2024-01-25T05:19:25;98196.00;;;7.76;100.00
47330;BME280;33060;50.178;7.570;2024-01-25T05:21:52;98200.19;;;7.82;100.00
47330;BME280;33060;50.178;7.570;2024-01-25T05:24:19;98209.38;;;7.70;100.00
47330;BME280;33060;50.178;7.570;2024-01-25T05:26:45;98213.25;;;7.38;100.00
47330;BME280;33060;50.178;7.570;2024-01-25T05:29:12;98213.31;;;7.15;100.00
47330;BME280;33060;50.178;7.570;2024-01-25T05:31:39;98207.44;;;7.31;100.00
47330;BME280;33060;50.178;7.570;2024-01-25T05:34:06;98211.16;;;7.48;100.00
47330;BME280;33060;50.178;7.570;2024-01-25T05:36:33;98226.75;;;7.29;100.00
47330;BME280;33060;50.178;7.570;2024-01-25T05:38:59;98227.78;;;7.48;100.00
47330;BME280;33060;50.178;7.570;2024-01-25T05:41:26;98227.78;;;7.70;100.00
47330;BME280;33060;50.178;7.570;2024-01-25T05:43:53;98226.44;;;7.82;100.00
47330;BME280;33060;50.178;7.570;2024-01-25T05:46:21;98231.88;;;7.77;100.00
47330;BME280;33060;50.178;7.570;2024-01-25T05:48:48;98235.00;;;7.65;100.00
47330;BME280;33060;50.178;7.570;2024-01-25T05:51:15;98231.25;;;7.49;100.00
47330;BME280;33060;50.178;7.570;2024-01-25T05:53:42;98233.53;;;7.11;100.00
47330;BME280;33060;50.178;7.570;2024-01-25T05:56:09;98242.75;;;6.74;100.00
47330;BME280;33060;50.178;7.570;2024-01-25T05:58:36;98245.00;;;6.85;100.00
47330;BME280;33060;50.178;7.570;2024-01-25T06:01:04;98245.84;;;6.86;100.00
47330;BME280;33060;50.178;7.570;2024-01-25T06:03:31;98254.91;;;6.77;100.00
47330;BME280;33060;50.178;7.570;2024-01-25T06:05:58;98256.31;;;6.87;100.00
47330;BME280;33060;50.178;7.570;2024-01-25T06:08:25;98255.03;;;6.74;100.00
47330;BME280;33060;50.178;7.570;2024-01-25T06:10:52;98262.56;;;6.58;100.00
47330;BME280;33060;50.178;7.570;2024-01-25T06:13:19;98267.28;;;6.73;100.00
47330;BME280;33060;50.178;7.570;2024-01-25T06:15:45;98258.34;;;6.79;100.00
47330;BME280;33060;50.178;7.570;2024-01-25T06:18:12;98266.31;;;6.76;100.00
47330;BME280;33060;50.178;7.570;2024-01-25T06:20:39;98260.38;;;6.71;100.00
47330;BME280;33060;50.178;7.570;2024-01-25T06:23:06;98269.16;;;6.70;100.00
47330;BME280;33060;50.178;7.570;2024-01-25T06:25:32;98247.22;;;6.72;100.00
47330;BME280;33060;50.178;7.570;2024-01-25T06:28:01;98261.44;;;6.65;100.00
47330;BME280;33060;50.178;7.570;2024-01-25T06:30:27;98263.97;;;6.17;100.00
47330;BME280;33060;50.178;7.570;2024-01-25T06:32:54;98269.22;;;6.17;100.00
47330;BME280;33060;50.178;7.570;2024-01-25T06:35:21;98262.19;;;6.69;100.00
47330;BME280;33060;50.178;7.570;2024-01-25T06:37:48;98259.72;;;6.64;100.00
47330;BME280;33060;50.178;7.570;2024-01-25T06:40:15;98266.22;;;6.54;100.00
47330;BME280;33060;50.178;7.570;2024-01-25T06:42:41;98262.50;;;6.60;100.00
47330;BME280;33060;50.178;7.570;2024-01-25T06:45:09;98260.38;;;6.71;100.00
47330;BME280;33060;50.178;7.570;2024-01-25T06:47:36;98273.09;;;6.57;100.00
47330;BME280;33060;50.178;7.570;2024-01-25T06:50:03;98266.53;;;6.70;100.00
47330;BME280;33060;50.178;7.570;2024-01-25T06:52:30;98276.78;;;6.76;100.00
47330;BME280;33060;50.178;7.570;2024-01-25T06:54:57;98284.56;;;6.79;100.00
47330;BME280;33060;50.178;7.570;2024-01-25T06:57:25;98284.72;;;6.99;100.00
47330;BME280;33060;50.178;7.570;2024-01-25T06:59:51;98289.25;;;6.94;100.00
47330;BME280;33060;50.178;7.570;2024-01-25T07:02:18;98289.84;;;7.02;100.00
47330;BME280;33060;50.178;7.570;2024-01-25T07:04:45;98293.69;;;6.92;100.00
47330;BME280;33060;50.178;7.570;2024-01-25T07:07:13;98286.03;;;6.86;100.00
47330;BME280;33060;50.178;7.570;2024-01-25T07:09:39;98293.34;;;6.78;100.00
47330;BME280;33060;50.178;7.570;2024-01-25T07:12:06;98287.44;;;6.96;100.00
47330;BME280;33060;50.178;7.570;2024-01-25T07:14:33;98290.88;;;6.98;100.00
47330;BME280;33060;50.178;7.570;2024-01-25T07:17:00;98289.75;;;7.05;100.00
47330;BME280;33060;50.178;7.570;2024-01-25T07:19:26;98292.16;;;6.87;100.00
47330;BME280;33060;50.178;7.570;2024-01-25T07:21:53;98293.06;;;6.61;100.00
47330;BME280;33060;50.178;7.570;2024-01-25T07:24:20;98289.56;;;6.85;100.00
47330;BME280;33060;50.178;7.570;2024-01-25T07:26:47;98281.13;;;6.77;100.00
47330;BME280;33060;50.178;7.570;2024-01-25T07:29:13;98278.16;;;6.63;100.00
47330;BME280;33060;50.178;7.570;2024-01-25T07:31:40;98286.00;;;6.63;100.00
47330;BME280;33060;50.178;7.570;2024-01-25T07:34:07;98286.53;;;6.21;100.00
47330;BME280;33060;50.178;7.570;2024-01-25T07:36:33;98281.47;;;6.41;100.00
47330;BME280;33060;50.178;7.570;2024-01-25T07:39:00;98276.47;;;6.60;100.00
47330;BME280;33060;50.178;7.570;2024-01-25T07:41:27;98273.97;;;6.57;100.00
47330;BME280;33060;50.178;7.570;2024-01-25T07:43:53;98281.88;;;6.56;100.00
47330;BME280;33060;50.178;7.570;2024-01-25T07:46:22;98274.44;;;6.43;100.00
47330;BME280;33060;50.178;7.570;2024-01-25T07:48:50;98272.50;;;6.48;100.00
47330;BME280;33060;50.178;7.570;2024-01-25T07:51:17;98273.63;;;6.41;100.00
47330;BME280;33060;50.178;7.570;2024-01-25T07:53:44;98281.50;;;6.15;100.00
47330;BME280;33060;50.178;7.570;2024-01-25T07:56:11;98275.38;;;6.41;100.00
47330;BME280;33060;50.178;7.570;2024-01-25T07:58:38;98277.47;;;6.31;100.00
47330;BME280;33060;50.178;7.570;2024-01-25T08:01:05;98281.19;;;6.24;100.00
47330;BME280;33060;50.178;7.570;2024-01-25T08:03:36;98285.88;;;6.14;100.00
47330;BME280;33060;50.178;7.570;2024-01-25T08:06:03;98285.75;;;6.19;100.00
47330;BME280;33060;50.178;7.570;2024-01-25T08:08:30;98285.63;;;6.22;100.00
47330;BME280;33060;50.178;7.570;2024-01-25T08:10:57;98287.88;;;6.84;100.00
47330;BME280;33060;50.178;7.570;2024-01-25T08:13:24;98285.75;;;6.95;100.00
47330;BME280;33060;50.178;7.570;2024-01-25T08:15:51;98284.06;;;6.68;100.00
47330;BME280;33060;50.178;7.570;2024-01-25T08:18:18;98285.03;;;6.90;100.00
47330;BME280;33060;50.178;7.570;2024-01-25T08:20:46;98277.22;;;7.12;100.00
47330;BME280;33060;50.178;7.570;2024-01-25T08:23:13;98276.97;;;6.96;100.00
47330;BME280;33060;50.178;7.570;2024-01-25T08:25:41;98277.31;;;7.34;100.00
47330;BME280;33060;50.178;7.570;2024-01-25T08:28:08;98281.06;;;7.27;100.00
47330;BME280;33060;50.178;7.570;2024-01-25T08:30:35;98281.84;;;7.30;100.00
47330;BME280;33060;50.178;7.570;2024-01-25T08:33:02;98287.50;;;7.18;100.00
47330;BME280;33060;50.178;7.570;2024-01-25T08:35:30;98285.75;;;7.42;100.00
47330;BME280;33060;50.178;7.570;2024-01-25T08:37:58;98290.53;;;7.54;100.00
47330;BME280;33060;50.178;7.570;2024-01-25T08:40:24;98289.34;;;7.40;100.00
47330;BME280;33060;50.178;7.570;2024-01-25T08:42:54;98289.72;;;7.29;100.00
47330;BME280;33060;50.178;7.570;2024-01-25T08:45:21;98287.81;;;7.57;100.00
47330;BME280;33060;50.178;7.570;2024-01-25T08:47:48;98278.06;;;7.14;100.00
47330;BME280;33060;50.178;7.570;2024-01-25T08:50:16;98283.25;;;7.16;100.00
47330;BME280;33060;50.178;7.570;2024-01-25T08:52:43;98281.91;;;7.74;100.00
47330;BME280;33060;50.178;7.570;2024-01-25T08:55:10;98277.88;;;7.42;100.00
47330;BME280;33060;50.178;7.570;2024-01-25T08:57:37;98284.31;;;7.57;100.00
47330;BME280;33060;50.178;7.570;2024-01-25T09:00:04;98283.84;;;7.69;100.00
47330;BME280;33060;50.178;7.570;2024-01-25T09:02:37;98291.34;;;7.33;100.00
47330;BME280;33060;50.178;7.570;2024-01-25T09:05:07;98289.22;;;7.66;100.00
47330;BME280;33060;50.178;7.570;2024-01-25T09:07:35;98295.09;;;7.26;100.00
47330;BME280;33060;50.178;7.570;2024-01-25T09:10:03;98292.66;;;8.12;100.00
47330;BME280;33060;50.178;7.570;2024-01-25T09:12:31;98299.38;;;7.97;100.00
47330;BME280;33060;50.178;7.570;2024-01-25T09:14:58;98304.44;;;7.80;100.00
47330;BME280;33060;50.178;7.570;2024-01-25T09:17:25;98295.75;;;7.78;100.00
47330;BME280;33060;50.178;7.570;2024-01-25T09:19:51;98298.53;;;8.18;100.00
47330;BME280;33060;50.178;7.570;2024-01-25T09:22:19;98297.47;;;7.79;100.00
47330;BME280;33060;50.178;7.570;2024-01-25T09:24:46;98300.66;;;7.87;100.00
47330;BME280;33060;50.178;7.570;2024-01-25T09:27:14;98303.53;;;8.03;100.00
47330;BME280;33060;50.178;7.570;2024-01-25T09:29:42;98290.06;;;8.54;100.00
47330;BME280;33060;50.178;7.570;2024-01-25T09:32:09;98300.28;;;8.40;100.00
47330;BME280;33060;50.178;7.570;2024-01-25T09:34:37;98289.22;;;8.54;100.00
47330;BME280;33060;50.178;7.570;2024-01-25T09:37:06;98284.28;;;8.46;100.00
47330;BME280;33060;50.178;7.570;2024-01-25T09:39:33;98298.00;;;8.31;100.00
47330;BME280;33060;50.178;7.570;2024-01-25T09:42:03;98287.28;;;8.57;100.00
47330;BME280;33060;50.178;7.570;2024-01-25T09:44:31;98299.50;;;7.94;100.00
47330;BME280;33060;50.178;7.570;2024-01-25T09:46:58;98303.97;;;8.36;100.00
47330;BME280;33060;50.178;7.570;2024-01-25T09:49:25;98307.97;;;8.22;100.00
47330;BME280;33060;50.178;7.570;2024-01-25T09:51:52;98303.81;;;8.61;100.00
47330;BME280;33060;50.178;7.570;2024-01-25T09:54:21;98308.84;;;8.45;100.00
47330;BME280;33060;50.178;7.570;2024-01-25T09:56:49;98312.28;;;8.67;100.00
47330;BME280;33060;50.178;7.570;2024-01-25T09:59:17;98315.66;;;8.91;100.00
47330;BME280;33060;50.178;7.570;2024-01-25T10:01:44;98326.72;;;8.79;100.00
47330;BME280;33060;50.178;7.570;2024-01-25T10:04:11;98335.25;;;8.42;100.00
47330;BME280;33060;50.178;7.570;2024-01-25T10:06:37;98319.47;;;8.84;100.00
47330;BME280;33060;50.178;7.570;2024-01-25T10:09:04;98317.63;;;9.06;100.00
47330;BME280;33060;50.178;7.570;2024-01-25T10:11:31;98311.47;;;9.26;100.00
47330;BME280;33060;50.178;7.570;2024-01-25T10:14:06;98311.44;;;9.07;100.00
47330;BME280;33060;50.178;7.570;2024-01-25T10:16:35;98312.03;;;9.14;100.00
47330;BME280;33060;50.178;7.570;2024-01-25T10:19:06;98302.63;;;9.48;100.00
47330;BME280;33060;50.178;7.570;2024-01-25T10:21:35;98298.81;;;9.34;99.62
47330;BME280;33060;50.178;7.570;2024-01-25T10:24:05;98319.34;;;9.66;100.00
47330;BME280;33060;50.178;7.570;2024-01-25T10:26:34;98312.22;;;9.30;100.00
47330;BME280;33060;50.178;7.570;2024-01-25T10:29:01;98310.78;;;9.42;100.00
47330;BME280;33060;50.178;7.570;2024-01-25T10:31:30;98308.66;;;9.11;99.96
47330;BME280;33060;50.178;7.570;2024-01-25T10:33:59;98318.34;;;9.68;96.90
47330;BME280;33060;50.178;7.570;2024-01-25T10:36:27;98327.81;;;9.72;97.95
47330;BME280;33060;50.178;7.570;2024-01-25T10:38:55;98332.53;;;9.84;94.84
47330;BME280;33060;50.178;7.570;2024-01-25T10:41:24;98332.47;;;9.67;95.13
47330;BME280;33060;50.178;7.570;2024-01-25T10:43:54;98327.38;;;9.04;96.73
47330;BME280;33060;50.178;7.570;2024-01-25T10:46:21;98322.63;;;9.71;95.73
47330;BME280;33060;50.178;7.570;2024-01-25T10:48:49;98310.16;;;9.55;96.13
47330;BME280;33060;50.178;7.570;2024-01-25T10:51:17;98311.44;;;9.84;96.46
47330;BME280;33060;50.178;7.570;2024-01-25T10:53:47;98310.50;;;10.23;93.30
47330;BME280;33060;50.178;7.570;2024-01-25T10:56:14;98311.66;;;9.61;93.93
47330;BME280;33060;50.178;7.570;2024-01-25T10:58:41;98299.59;;;10.12;93.42
47330;BME280;33060;50.178;7.570;2024-01-25T11:01:09;98303.75;;;10.16;92.59
47330;BME280;33060;50.178;7.570;2024-01-25T11:03:42;98295.75;;;9.81;90.91
47330;BME280;33060;50.178;7.570;2024-01-25T11:06:13;98294.47;;;9.33;94.14
47330;BME280;33060;50.178;7.570;2024-01-25T11:08:40;98283.19;;;9.50;95.32
47330;BME280;33060;50.178;7.570;2024-01-25T11:11:10;98281.63;;;9.65;94.50
47330;BME280;33060;50.178;7.570;2024-01-25T11:13:44;98281.84;;;10.34;88.97
47330;BME280;33060;50.178;7.570;2024-01-25T11:18:56;98278.75;;;10.61;88.88
47330;BME280;33060;50.178;7.570;2024-01-25T11:21:37;98258.88;;;10.36;86.90
47330;BME280;33060;50.178;7.570;2024-01-25T11:24:04;98263.16;;;9.84;90.22
47330;BME280;33060;50.178;7.570;2024-01-25T11:26:32;98267.09;;;10.11;91.00
47330;BME280;33060;50.178;7.570;2024-01-25T11:28:59;98266.66;;;10.20;89.43
47330;BME280;33060;50.178;7.570;2024-01-25T11:31:29;98259.31;;;10.79;88.43
47330;BME280;33060;50.178;7.570;2024-01-25T11:33:57;98262.38;;;10.54;89.32
47330;BME280;33060;50.178;7.570;2024-01-25T11:36:26;98262.09;;;10.76;89.61
47330;BME280;33060;50.178;7.570;2024-01-25T11:38:52;98255.59;;;10.66;89.25
47330;BME280;33060;50.178;7.570;2024-01-25T11:41:20;98252.81;;;9.79;92.40
47330;BME280;33060;50.178;7.570;2024-01-25T11:43:50;98247.84;;;9.92;95.08
47330;BME280;33060;50.178;7.570;2024-01-25T11:46:17;98248.19;;;9.84;95.08
47330;BME280;33060;50.178;7.570;2024-01-25T11:48:44;98242.44;;;9.76;93.01
47330;BME280;33060;50.178;7.570;2024-01-25T11:51:11;98230.22;;;10.29;92.40
47330;BME280;33060;50.178;7.570;2024-01-25T11:53:38;98228.00;;;10.02;91.46
47330;BME280;33060;50.178;7.570;2024-01-25T11:56:09;98226.50;;;9.97;91.71
47330;BME280;33060;50.178;7.570;2024-01-25T11:58:37;98230.03;;;10.14;92.53
47330;BME280;33060;50.178;7.570;2024-01-25T12:01:08;98209.22;;;10.27;90.55
47330;BME280;33060;50.178;7.570;2024-01-25T12:03:36;98209.47;;;10.04;90.70
47330;BME280;33060;50.178;7.570;2024-01-25T12:06:04;98209.47;;;10.04;90.64
47330;BME280;33060;50.178;7.570;2024-01-25T12:08:32;98215.38;;;10.09;90.06
47330;BME280;33060;50.178;7.570;2024-01-25T12:11:06;98209.47;;;10.04;91.95
47330;BME280;33060;50.178;7.570;2024-01-25T12:13:43;98206.75;;;10.05;92.51
47330;BME280;33060;50.178;7.570;2024-01-25T12:16:11;98203.00;;;9.75;92.97
47330;BME280;33060;50.178;7.570;2024-01-25T12:18:41;98195.66;;;9.99;92.08
47330;BME280;33060;50.178;7.570;2024-01-25T12:21:09;98202.78;;;9.97;90.63
47330;BME280;33060;50.178;7.570;2024-01-25T12:23:38;98186.56;;;10.23;86.98
47330;BME280;33060;50.178;7.570;2024-01-25T12:26:10;98193.44;;;10.08;89.43
47330;BME280;33060;50.178;7.570;2024-01-25T12:28:40;98200.22;;;10.31;87.74
47330;BME280;33060;50.178;7.570;2024-01-25T12:31:07;98200.97;;;10.51;86.25
47330;BME280;33060;50.178;7.570;2024-01-25T12:33:35;98203.47;;;10.36;84.70
47330;BME280;33060;50.178;7.570;2024-01-25T12:36:03;98185.28;;;10.65;85.35
47330;BME280;33060;50.178;7.570;2024-01-25T12:38:30;98180.00;;;10.65;83.28
47330;BME280;33060;50.178;7.570;2024-01-25T12:41:01;98173.44;;;10.89;81.04
47330;BME280;33060;50.178;7.570;2024-01-25T12:43:28;98160.59;;;10.99;80.44
47330;BME280;33060;50.178;7.570;2024-01-25T12:45:56;98167.72;;;10.81;80.60
47330;BME280;33060;50.178;7.570;2024-01-25T12:48:34;98167.22;;;10.90;81.03
47330;BME280;33060;50.178;7.570;2024-01-25T12:51:01;98170.84;;;11.21;79.69
47330;BME280;33060;50.178;7.570;2024-01-25T12:53:28;98169.31;;;11.17;78.86
47330;BME280;33060;50.178;7.570;2024-01-25T12:55:55;98169.91;;;11.22;79.44
47330;BME280;33060;50.178;7.570;2024-01-25T12:58:22;98167.94;;;11.10;77.96
47330;BME280;33060;50.178;7.570;2024-01-25T13:00:49;98175.47;;;11.33;78.82
47330;BME280;33060;50.178;7.570;2024-01-25T13:03:15;98159.69;;;11.31;78.27